Time;durP1;ratioP1;P1;durP2;ratioP2;P2;SDS_P1;SDS_P2;PMS_P1;PMS_P2;Temp;Humidity;BMP_temperature;BMP_pressure;BME280_temperature;BME280_humidity;BME280_pressure;Samples;Min_cycle;Max_cycle;Signal;HPM_P1;HPM_P2
2021/07/26 00:01:41;;;;;;;11.10;7.20;;;18.00;99.90;;;;;;4993022;28;20648;-59
2021/07/26 00:04:06;;;;;;;8.10;7.40;;;18.00;99.90;;;;;;4992897;28;20422;-61
2021/07/26 00:06:32;;;;;;;7.57;6.87;;;17.90;99.90;;;;;;4992821;28;20211;-61
2021/07/26 00:08:57;;;;;;;7.87;7.27;;;17.80;99.90;;;;;;4992642;28;20175;-59
2021/07/26 00:11:23;;;;;;;7.83;7.13;;;17.80;99.90;;;;;;4992762;28;20206;-60
2021/07/26 00:13:48;;;;;;;8.63;7.73;;;17.80;99.90;;;;;;4992646;28;20218;-61
2021/07/26 00:16:14;;;;;;;8.50;7.80;;;17.90;99.90;;;;;;4992790;28;20187;-61
2021/07/26 00:18:40;;;;;;;9.37;7.83;;;17.80;99.90;;;;;;4992409;28;20226;-59
2021/07/26 00:21:05;;;;;;;9.50;7.40;;;17.80;99.90;;;;;;4992758;28;20195;-61
2021/07/26 00:23:31;;;;;;;7.80;7.07;;;17.80;99.90;;;;;;4992812;28;20199;-60
2021/07/26 00:25:57;;;;;;;8.10;7.30;;;17.80;99.90;;;;;;4992640;28;20296;-60
2021/07/26 00:28:22;;;;;;;7.97;7.27;;;17.80;99.90;;;;;;4992316;28;20190;-59
2021/07/26 00:30:48;;;;;;;8.80;7.90;;;17.80;99.90;;;;;;4992581;28;20183;-61
2021/07/26 00:34:04;;;;;;;11.70;7.83;;;17.70;99.90;;;;;;4992477;28;20203;-60
2021/07/26 00:36:30;;;;;;;8.03;7.33;;;17.70;99.90;;;;;;4992606;28;20776;-60
2021/07/26 00:38:56;;;;;;;8.53;7.80;;;17.80;99.90;;;;;;4983048;28;20454;-61
2021/07/26 00:41:22;;;;;;;9.87;8.97;;;17.80;99.90;;;;;;5012114;28;20417;-60
2021/07/26 00:43:48;;;;;;;9.00;8.17;;;17.80;99.90;;;;;;5012052;28;20167;-61
2021/07/26 00:46:13;;;;;;;8.40;7.80;;;17.80;99.90;;;;;;5011998;28;20842;-61
2021/07/26 00:48:39;;;;;;;8.40;7.80;;;17.80;99.90;;;;;;5014328;28;20535;-61
2021/07/26 00:51:05;;;;;;;8.87;8.10;;;17.80;99.90;;;;;;5016112;28;20167;-59
2021/07/26 00:53:31;;;;;;;8.90;8.00;;;17.80;99.90;;;;;;5015858;28;20195;-60
2021/07/26 00:55:57;;;;;;;8.97;7.63;;;17.80;99.90;;;;;;5015871;28;20855;-60
2021/07/26 00:58:22;;;;;;;8.33;7.53;;;17.80;99.90;;;;;;5015745;28;20581;-59
2021/07/26 01:00:48;;;;;;;8.60;7.97;;;17.80;99.90;;;;;;5015986;28;20636;-61
2021/07/26 01:03:14;;;;;;;9.10;8.30;;;17.70;99.90;;;;;;5015830;28;20170;-61
2021/07/26 01:05:40;;;;;;;13.90;8.00;;;17.70;99.90;;;;;;5015638;28;20464;-61
2021/07/26 01:08:05;;;;;;;8.93;8.03;;;17.50;99.90;;;;;;5015631;28;20194;-59
2021/07/26 01:10:31;;;;;;;9.33;8.53;;;17.50;99.90;;;;;;5015469;28;20171;-61
2021/07/26 01:12:57;;;;;;;14.03;9.43;;;17.50;99.90;;;;;;4997987;28;20457;-59
2021/07/26 01:15:23;;;;;;;13.27;9.90;;;17.50;99.90;;;;;;5015511;28;20948;-59
2021/07/26 01:18:16;;;;;;;9.67;8.87;;;17.40;99.90;;;;;;5015508;28;20662;-61
2021/07/26 01:20:42;;;;;;;12.57;9.10;;;17.30;99.90;;;;;;5015554;28;20421;-60
2021/07/26 01:23:08;;;;;;;9.03;8.17;;;17.30;99.90;;;;;;5015495;28;20421;-61
2021/07/26 01:25:37;;;;;;;9.77;8.97;;;17.20;99.90;;;;;;5015580;28;20198;-60
2021/07/26 01:28:04;;;;;;;10.13;9.23;;;17.20;99.90;;;;;;5015347;28;20175;-60
2021/07/26 01:30:31;;;;;;;9.60;8.80;;;17.30;99.90;;;;;;5015096;28;20405;-60
2021/07/26 01:32:57;;;;;;;9.50;8.70;;;17.40;99.90;;;;;;5015034;28;21024;-60
2021/07/26 01:35:23;;;;;;;9.03;8.13;;;17.40;99.90;;;;;;5015398;28;20802;-60
2021/07/26 01:37:48;;;;;;;10.37;9.40;;;17.40;99.90;;;;;;5015249;28;20409;-59
2021/07/26 01:40:14;;;;;;;10.37;9.17;;;17.50;99.90;;;;;;4995796;28;20172;-61
2021/07/26 01:42:44;;;;;;;13.83;10.07;;;17.60;99.90;;;;;;4995611;28;20320;-60
2021/07/26 01:45:10;;;;;;;11.03;9.37;;;17.60;99.90;;;;;;4995505;28;20191;-61
2021/07/26 01:47:48;;;;;;;8.93;8.13;;;17.60;99.90;;;;;;4995209;28;20862;-60
2021/07/26 01:50:18;;;;;;;9.03;8.23;;;17.60;99.90;;;;;;4995198;28;20418;-61
2021/07/26 01:52:43;;;;;;;9.63;8.73;;;17.60;99.90;;;;;;4995290;28;21055;-59
2021/07/26 01:55:10;;;;;;;10.57;8.83;;;17.50;99.90;;;;;;4995275;28;20482;-60
2021/07/26 01:57:36;;;;;;;8.03;7.33;;;17.50;99.90;;;;;;4995223;28;20164;-59
2021/07/26 02:00:03;;;;;;;8.37;7.50;;;17.50;99.90;;;;;;4994678;28;20482;-60
2021/07/26 02:02:31;;;;;;;16.63;8.80;;;17.60;99.90;;;;;;4995331;28;20214;-60
2021/07/26 02:04:58;;;;;;;9.70;8.70;;;17.70;99.90;;;;;;4994936;28;20508;-60
2021/07/26 02:07:24;;;;;;;10.03;9.20;;;17.70;99.90;;;;;;4995191;28;20914;-59
2021/07/26 02:09:49;;;;;;;9.03;8.30;;;17.70;99.90;;;;;;4994803;28;20449;-60
2021/07/26 02:12:15;;;;;;;8.63;7.93;;;17.70;99.90;;;;;;4994948;28;20285;-61
2021/07/26 02:14:40;;;;;;;8.93;7.90;;;17.60;99.90;;;;;;4994781;28;20219;-58
2021/07/26 02:17:07;;;;;;;7.43;6.83;;;17.60;99.90;;;;;;4995099;28;20767;-61
2021/07/26 02:19:33;;;;;;;8.40;7.70;;;17.50;99.90;;;;;;4994588;28;20163;-59
2021/07/26 02:21:58;;;;;;;8.50;7.80;;;17.50;99.90;;;;;;4994931;28;20423;-60
2021/07/26 02:24:24;;;;;;;8.80;8.10;;;17.40;99.90;;;;;;4994845;28;20175;-59
2021/07/26 02:26:49;;;;;;;15.13;8.60;;;17.40;99.90;;;;;;4994768;28;20227;-60
2021/07/26 02:29:15;;;;;;;9.00;8.20;;;17.30;99.90;;;;;;4994280;28;20215;-59
2021/07/26 02:31:40;;;;;;;12.33;9.03;;;17.30;99.90;;;;;;4994561;28;20279;-61
2021/07/26 02:34:06;;;;;;;9.73;8.77;;;17.30;99.90;;;;;;4994604;28;20186;-60
2021/07/26 02:36:31;;;;;;;10.00;9.00;;;17.20;99.90;;;;;;4994482;28;20246;-60
2021/07/26 02:38:57;;;;;;;9.40;8.60;;;17.30;99.90;;;;;;5002744;28;20624;-61
2021/07/26 02:41:23;;;;;;;9.90;7.93;;;17.20;99.90;;;;;;5014008;28;20301;-61
2021/07/26 02:43:48;;;;;;;10.00;8.53;;;17.20;99.90;;;;;;5013860;28;20245;-61
2021/07/26 02:46:14;;;;;;;8.90;7.67;;;17.20;99.90;;;;;;5013830;28;20191;-60
2021/07/26 02:48:40;;;;;;;9.03;8.40;;;17.30;99.90;;;;;;5013517;28;20167;-60
2021/07/26 02:51:07;;;;;;;8.97;8.17;;;17.40;99.90;;;;;;5013816;28;20418;-59
2021/07/26 02:53:33;;;;;;;8.90;8.20;;;17.40;99.90;;;;;;5013790;28;20199;-61
2021/07/26 02:55:59;;;;;;;10.40;8.20;;;17.40;99.90;;;;;;5013672;28;20449;-61
2021/07/26 02:58:25;;;;;;;9.93;9.03;;;17.40;99.90;;;;;;4995697;28;20488;-60
2021/07/26 03:00:50;;;;;;;8.37;7.67;;;17.30;99.90;;;;;;5013819;28;20179;-60
2021/07/26 03:03:16;;;;;;;11.13;8.00;;;17.30;99.90;;;;;;5013644;28;20449;-60
2021/07/26 03:05:42;;;;;;;8.13;7.37;;;17.30;99.90;;;;;;5013465;28;20257;-61
2021/07/26 03:08:07;;;;;;;9.67;8.90;;;17.40;99.90;;;;;;5013552;28;20322;-59
2021/07/26 03:10:33;;;;;;;10.73;8.80;;;17.30;99.90;;;;;;5012627;28;20178;-61
2021/07/26 03:13:00;;;;;;;8.80;7.23;;;17.40;99.90;;;;;;5013185;28;20672;-60
2021/07/26 03:15:25;;;;;;;9.80;8.10;;;17.40;99.90;;;;;;5013317;28;20187;-61
2021/07/26 03:17:51;;;;;;;9.13;8.33;;;17.50;99.90;;;;;;5013319;28;20557;-60
2021/07/26 03:20:17;;;;;;;8.87;8.00;;;17.50;99.90;;;;;;5013061;28;20655;-61
2021/07/26 03:22:58;;;;;;;10.20;9.23;;;17.50;99.90;;;;;;5013260;28;20182;-59
2021/07/26 03:25:25;;;;;;;9.77;8.87;;;17.60;99.90;;;;;;5013039;28;20225;-60
2021/07/26 03:27:51;;;;;;;8.03;6.90;;;17.50;99.90;;;;;;5013139;28;20895;-59
2021/07/26 03:30:19;;;;;;;8.20;7.50;;;17.60;99.90;;;;;;5012817;28;20420;-60
2021/07/26 03:32:44;;;;;;;8.13;7.50;;;17.70;99.90;;;;;;5012936;28;20704;-60
2021/07/26 03:35:11;;;;;;;8.37;7.70;;;17.70;99.90;;;;;;5012976;28;20434;-60
2021/07/26 03:37:37;;;;;;;9.10;8.13;;;17.70;99.90;;;;;;5013038;28;20177;-61
2021/07/26 03:40:04;;;;;;;8.23;7.63;;;17.70;99.90;;;;;;4994989;28;20509;-60
2021/07/26 03:42:33;;;;;;;8.70;8.00;;;17.60;99.90;;;;;;4993312;28;20171;-61
2021/07/26 03:44:58;;;;;;;8.80;7.40;;;17.60;99.90;;;;;;4993186;28;20974;-59
2021/07/26 03:47:24;;;;;;;10.03;9.00;;;17.70;99.90;;;;;;4993238;28;20455;-59
2021/07/26 03:49:50;;;;;;;7.57;7.00;;;17.70;99.90;;;;;;4992857;28;20172;-61
2021/07/26 03:52:15;;;;;;;8.47;7.67;;;17.80;99.90;;;;;;4993124;28;20338;-61
2021/07/26 03:54:41;;;;;;;8.50;7.60;;;17.70;99.90;;;;;;4992997;28;20459;-59
2021/07/26 03:57:06;;;;;;;12.97;8.90;;;17.70;99.90;;;;;;4993067;28;20250;-60
2021/07/26 03:59:32;;;;;;;10.03;8.37;;;17.60;99.90;;;;;;4992743;28;20175;-60
2021/07/26 04:01:57;;;;;;;9.83;8.90;;;17.50;99.90;;;;;;4993040;28;20584;-61
2021/07/26 04:04:24;;;;;;;9.40;8.50;;;17.40;99.90;;;;;;4992919;28;20194;-59
2021/07/26 04:06:54;;;;;;;9.27;8.23;;;17.40;99.90;;;;;;4993499;28;20183;-60
2021/07/26 04:09:22;;;;;;;9.33;8.57;;;17.30;99.90;;;;;;4992536;28;20513;-61
2021/07/26 04:11:51;;;;;;;9.90;9.10;;;17.20;99.90;;;;;;4992761;28;20833;-60
2021/07/26 04:14:21;;;;;;;8.53;7.83;;;17.10;99.90;;;;;;4992783;28;20423;-60
2021/07/26 04:16:46;;;;;;;10.23;8.73;;;17.10;99.90;;;;;;4992705;28;20477;-61
2021/07/26 04:19:12;;;;;;;9.40;8.70;;;17.10;99.90;;;;;;5000182;28;20468;-60
2021/07/26 04:21:37;;;;;;;9.50;8.63;;;17.10;99.90;;;;;;5001568;28;20171;-61
2021/07/26 04:24:03;;;;;;;10.23;8.70;;;17.10;99.90;;;;;;4993159;28;20172;-61
2021/07/26 04:26:29;;;;;;;9.53;8.63;;;17.20;99.90;;;;;;4992727;28;20214;-61
2021/07/26 04:28:55;;;;;;;10.30;9.27;;;17.20;99.90;;;;;;4992306;28;20536;-61
2021/07/26 04:31:20;;;;;;;9.57;8.63;;;17.20;99.90;;;;;;4992755;28;20633;-59
2021/07/26 04:33:46;;;;;;;11.50;9.10;;;17.30;99.90;;;;;;4992467;28;20458;-59
2021/07/26 04:36:11;;;;;;;9.10;8.03;;;17.30;99.90;;;;;;4992509;28;20661;-59
2021/07/26 04:38:37;;;;;;;10.30;8.67;;;17.30;99.90;;;;;;4998055;28;20179;-59
2021/07/26 04:41:02;;;;;;;11.77;8.47;;;17.40;99.90;;;;;;5012149;28;20538;-60
2021/07/26 04:43:28;;;;;;;9.43;8.43;;;17.40;99.90;;;;;;5011946;28;20170;-61
2021/07/26 04:45:55;;;;;;;9.20;8.50;;;17.50;99.90;;;;;;5012070;28;20186;-59
2021/07/26 04:48:21;;;;;;;7.60;6.90;;;17.60;99.90;;;;;;5011922;28;20171;-61
2021/07/26 04:50:47;;;;;;;15.27;8.37;;;17.70;99.90;;;;;;5011842;28;20501;-60
2021/07/26 04:53:12;;;;;;;8.77;8.03;;;17.70;99.90;;;;;;5011928;28;20540;-61
2021/07/26 04:55:38;;;;;;;11.10;8.90;;;17.80;99.90;;;;;;5011962;28;20647;-60
2021/07/26 04:58:03;;;;;;;8.30;7.50;;;17.80;99.90;;;;;;5012216;28;20226;-61
2021/07/26 05:00:30;;;;;;;8.23;7.53;;;17.90;99.90;;;;;;5011687;28;20183;-60
2021/07/26 05:02:56;;;;;;;8.40;7.60;;;17.90;99.90;;;;;;4997023;28;20172;-61
2021/07/26 05:05:21;;;;;;;10.53;8.07;;;18.00;99.90;;;;;;4992169;28;20461;-61
2021/07/26 05:07:47;;;;;;;8.53;7.80;;;18.00;99.90;;;;;;4992234;28;20505;-61
2021/07/26 05:10:13;;;;;;;10.73;8.30;;;18.00;99.90;;;;;;4992001;28;20222;-60
2021/07/26 05:12:38;;;;;;;11.90;8.07;;;18.10;99.90;;;;;;4992261;28;20211;-59
2021/07/26 05:15:05;;;;;;;10.67;8.03;;;18.00;99.90;;;;;;4992160;28;20227;-60
2021/07/26 05:17:31;;;;;;;9.67;8.87;;;18.00;99.90;;;;;;4992089;28;20608;-61
2021/07/26 05:19:56;;;;;;;9.77;8.10;;;18.10;99.90;;;;;;4991843;28;20410;-60
2021/07/26 05:22:22;;;;;;;9.80;8.37;;;18.10;99.90;;;;;;4992137;28;20625;-59
2021/07/26 05:24:50;;;;;;;8.90;8.10;;;18.10;99.90;;;;;;5007648;28;20195;-61
2021/07/26 05:27:16;;;;;;;12.37;7.83;;;18.20;99.90;;;;;;5011946;28;20650;-59
2021/07/26 05:29:41;;;;;;;8.70;7.90;;;18.30;99.90;;;;;;5011394;28;20421;-61
2021/07/26 05:32:08;;;;;;;8.47;7.77;;;18.30;99.90;;;;;;5011743;28;20666;-60
2021/07/26 05:34:33;;;;;;;8.80;7.13;;;18.40;99.90;;;;;;5013604;28;20269;-59
2021/07/26 05:36:59;;;;;;;8.03;7.33;;;18.50;99.90;;;;;;5015471;28;20833;-61
2021/07/26 05:39:25;;;;;;;8.50;7.50;;;18.50;99.90;;;;;;5008642;28;20183;-61
2021/07/26 05:41:52;;;;;;;8.10;7.43;;;18.60;99.90;;;;;;5015080;28;20187;-60
2021/07/26 05:44:18;;;;;;;10.37;9.33;;;18.80;99.90;;;;;;5015110;28;20508;-61
2021/07/26 05:46:43;;;;;;;12.60;8.10;;;19.00;99.90;;;;;;5015011;28;20537;-61
2021/07/26 05:49:09;;;;;;;11.67;8.80;;;19.20;99.90;;;;;;5014522;28;20425;-61
2021/07/26 05:51:34;;;;;;;8.77;8.13;;;19.30;99.90;;;;;;5026943;28;20185;-61
2021/07/26 05:54:00;;;;;;;9.80;8.50;;;19.50;99.90;;;;;;5014960;28;20176;-59
2021/07/26 05:56:28;;;;;;;9.47;8.33;;;19.60;99.90;;;;;;5021814;28;20189;-60
2021/07/26 05:58:54;;;;;;;9.07;7.60;;;19.70;99.90;;;;;;5020994;28;20178;-58
2021/07/26 06:03:49;;;;;;;8.53;7.67;;;19.80;99.90;;;;;;5019686;28;20425;-61
2021/07/26 06:06:16;;;;;;;8.07;7.13;;;20.00;99.90;;;;;;5024273;28;20356;-61
2021/07/26 06:08:41;;;;;;;8.33;6.63;;;20.20;99.90;;;;;;5027446;28;20429;-61
2021/07/26 06:11:07;;;;;;;7.40;6.73;;;20.40;99.90;;;;;;5014527;28;20441;-61
2021/07/26 06:13:32;;;;;;;10.83;9.87;;;20.60;99.90;;;;;;5014496;28;20198;-61
2021/07/26 06:15:58;;;;;;;8.60;7.23;;;20.70;99.90;;;;;;5014095;28;20198;-61
2021/07/26 06:18:26;;;;;;;7.03;6.43;;;20.70;99.90;;;;;;5014097;28;20649;-60
2021/07/26 06:20:52;;;;;;;8.47;6.03;;;20.70;99.90;;;;;;5014442;28;20178;-58
2021/07/26 06:23:20;;;;;;;7.60;6.47;;;20.50;99.90;;;;;;5014447;28;20425;-60
2021/07/26 06:25:45;;;;;;;7.20;5.30;;;20.50;99.90;;;;;;5014293;28;20492;-59
2021/07/26 06:28:11;;;;;;;6.33;5.73;;;20.60;99.90;;;;;;5014042;28;20939;-60
2021/07/26 06:30:36;;;;;;;5.60;5.10;;;20.70;99.90;;;;;;5013962;28;20171;-61
2021/07/26 06:33:02;;;;;;;8.93;5.60;;;20.90;99.90;;;;;;5013337;28;20683;-60
2021/07/26 06:35:27;;;;;;;5.83;5.27;;;21.00;99.90;;;;;;5013875;28;20226;-63
2021/07/26 06:37:53;;;;;;;5.40;5.00;;;21.30;99.90;;;;;;5014343;28;20205;-58
2021/07/26 06:40:18;;;;;;;5.23;4.70;;;21.50;99.90;;;;;;4994138;28;20175;-59
2021/07/26 06:42:44;;;;;;;7.10;4.97;;;21.80;99.90;;;;;;4994402;28;20262;-62
2021/07/26 06:45:10;;;;;;;6.23;5.30;;;22.10;99.90;;;;;;4993430;28;20302;-62
2021/07/26 06:47:36;;;;;;;5.47;4.90;;;22.40;99.90;;;;;;4994302;28;20175;-59
2021/07/26 06:50:02;;;;;;;7.73;5.20;;;22.50;99.90;;;;;;4993984;28;20418;-59
2021/07/26 06:52:28;;;;;;;7.13;6.30;;;22.60;99.90;;;;;;4994151;28;20211;-59
2021/07/26 06:54:53;;;;;;;5.97;5.37;;;22.30;99.90;;;;;;4994108;28;20453;-59
2021/07/26 06:57:19;;;;;;;5.20;4.80;;;22.20;99.90;;;;;;4976719;28;20183;-60
2021/07/26 06:59:44;;;;;;;6.03;5.43;;;22.20;99.90;;;;;;4993853;28;20168;-59
2021/07/26 07:02:10;;;;;;;7.23;4.83;;;22.40;99.90;;;;;;4994011;28;20649;-60
2021/07/26 07:04:35;;;;;;;7.27;5.57;;;22.60;99.90;;;;;;4993865;28;20176;-61
2021/07/26 07:07:05;;;;;;;6.27;4.93;;;22.60;99.90;;;;;;4976600;28;20313;-61
2021/07/26 07:09:31;;;;;;;4.97;4.50;;;22.50;99.90;;;;;;5007364;28;20265;-61
2021/07/26 07:11:57;;;;;;;5.57;5.10;;;22.60;99.90;;;;;;5033065;28;20933;-61
2021/07/26 07:14:22;;;;;;;6.77;5.10;;;22.90;99.90;;;;;;5033226;28;20512;-64
2021/07/26 07:16:48;;;;;;;5.03;4.63;;;23.10;99.90;;;;;;5030020;28;20190;-61
2021/07/26 07:19:13;;;;;;;5.13;4.20;;;23.40;99.90;;;;;;5008857;28;20668;-61
2021/07/26 07:21:39;;;;;;;5.00;4.60;;;23.70;99.90;;;;;;5012961;28;20206;-60
2021/07/26 07:24:04;;;;;;;6.60;4.90;;;24.20;99.90;;;;;;5012279;28;20167;-61
2021/07/26 07:26:31;;;;;;;5.60;5.10;;;24.70;99.90;;;;;;5013297;28;20193;-60
2021/07/26 07:28:57;;;;;;;5.70;4.47;;;25.10;99.90;;;;;;5013500;28;20174;-60
2021/07/26 07:31:24;;;;;;;5.87;4.80;;;25.30;99.90;;;;;;5013074;28;20418;-63
2021/07/26 07:33:54;;;;;;;6.10;4.10;;;25.50;99.90;;;;;;5012829;28;20195;-60
2021/07/26 07:36:20;;;;;;;4.90;4.10;;;25.50;99.90;;;;;;5012022;28;20449;-60
2021/07/26 07:38:46;;;;;;;5.60;4.50;;;25.70;99.90;;;;;;5012659;28;20418;-61
2021/07/26 07:41:12;;;;;;;5.37;4.97;;;26.00;99.90;;;;;;5012048;28;20426;-61
2021/07/26 07:43:37;;;;;;;4.90;4.50;;;26.30;99.90;;;;;;5012001;28;20801;-60
2021/07/26 07:46:04;;;;;;;7.00;4.40;;;26.10;99.90;;;;;;5012719;28;20759;-60
2021/07/26 07:48:30;;;;;;;5.50;5.00;;;26.30;99.90;;;;;;5012536;28;20257;-60
2021/07/26 07:50:57;;;;;;;6.40;4.67;;;26.10;99.90;;;;;;5012771;28;20417;-60
2021/07/26 07:53:23;;;;;;;7.20;4.70;;;26.30;99.90;;;;;;5012594;28;20457;-60
2021/07/26 07:55:51;;;;;;;5.50;5.00;;;25.70;99.90;;;;;;5011873;28;20442;-60
2021/07/26 07:58:16;;;;;;;5.03;4.63;;;25.40;99.90;;;;;;5012757;28;20422;-60
2021/07/26 08:00:42;;;;;;;10.13;4.60;;;25.30;99.90;;;;;;5012120;28;20911;-60
2021/07/26 08:03:08;;;;;;;5.33;4.83;;;25.40;99.90;;;;;;5012540;28;20597;-60
2021/07/26 08:05:34;;;;;;;5.30;4.90;;;25.90;99.90;;;;;;5012414;28;20325;-60
2021/07/26 08:08:00;;;;;;;5.30;5.00;;;26.40;99.90;;;;;;5012560;28;20492;-60
2021/07/26 08:10:25;;;;;;;5.10;4.60;;;26.90;99.90;;;;;;5012306;28;20201;-60
2021/07/26 08:12:51;;;;;;;5.57;4.17;;;27.20;99.90;;;;;;4994601;28;20205;-60
2021/07/26 08:15:18;;;;;;;6.30;4.63;;;27.20;99.90;;;;;;5012366;28;20186;-60
2021/07/26 08:17:45;;;;;;;5.40;4.90;;;27.50;99.90;;;;;;5012364;28;20177;-60
2021/07/26 08:20:13;;;;;;;7.60;5.47;;;26.60;99.90;;;;;;5012224;28;20468;-60
2021/07/26 08:22:39;;;;;;;4.70;4.30;;;25.80;99.90;;;;;;5012208;28;20417;-60
2021/07/26 08:25:07;;;;;;;5.50;5.00;;;25.80;99.90;;;;;;5012281;28;20437;-59
2021/07/26 08:27:48;;;;;;;5.57;5.07;;;25.50;99.90;;;;;;5012105;28;20421;-60
2021/07/26 08:30:17;;;;;;;5.93;5.37;;;25.80;99.90;;;;;;5010985;28;20418;-60
2021/07/26 08:32:42;;;;;;;5.10;4.70;;;25.70;99.90;;;;;;5012255;28;20465;-60
2021/07/26 08:35:08;;;;;;;5.30;4.80;;;25.70;99.90;;;;;;5012178;28;20476;-60
2021/07/26 08:37:34;;;;;;;4.70;4.27;;;26.40;99.90;;;;;;5012133;28;20179;-60
2021/07/26 08:40:01;;;;;;;4.60;4.20;;;26.30;99.90;;;;;;5011805;28;20432;-60
2021/07/26 08:42:27;;;;;;;6.07;5.13;;;25.90;99.90;;;;;;5012047;28;20167;-61
2021/07/26 08:44:53;;;;;;;6.50;5.50;;;26.10;99.90;;;;;;5012023;28;20793;-61
2021/07/26 08:47:19;;;;;;;4.63;4.23;;;26.40;99.90;;;;;;5012001;28;20433;-61
2021/07/26 08:49:45;;;;;;;4.80;4.40;;;26.40;99.90;;;;;;5011807;28;20178;-61
2021/07/26 08:52:11;;;;;;;4.20;3.90;;;26.70;99.90;;;;;;5011901;28;20595;-61
2021/07/26 08:54:38;;;;;;;4.60;4.20;;;26.80;99.90;;;;;;5011826;28;20420;-61
2021/07/26 08:57:05;;;;;;;4.10;3.80;;;27.50;99.90;;;;;;5011955;28;20421;-61
2021/07/26 08:59:32;;;;;;;4.90;4.50;;;28.20;99.90;;;;;;5011870;28;20758;-61
2021/07/26 09:01:57;;;;;;;4.70;4.30;;;28.50;99.90;;;;;;5005955;28;20430;-61
2021/07/26 09:04:23;;;;;;;4.27;3.73;;;28.30;99.90;;;;;;5011643;28;20806;-61
2021/07/26 09:06:49;;;;;;;3.50;3.30;;;28.20;99.90;;;;;;5011836;28;20221;-61
2021/07/26 09:09:14;;;;;;;4.73;4.30;;;28.70;99.90;;;;;;5013100;28;20167;-61
2021/07/26 09:11:46;;;;;;;5.13;3.80;;;28.10;99.90;;;;;;5015629;28;20425;-61
2021/07/26 09:14:35;;;;;;;4.90;4.50;;;28.00;99.90;;;;;;5015740;28;20170;-61
2021/07/26 09:17:02;;;;;;;5.00;4.53;;;27.80;99.90;;;;;;5015688;28;20436;-61
2021/07/26 09:19:29;;;;;;;5.03;4.53;;;27.40;99.90;;;;;;5014878;28;20434;-61
2021/07/26 09:21:56;;;;;;;3.87;3.57;;;27.10;99.90;;;;;;5015438;28;20820;-61
2021/07/26 09:24:29;;;;;;;4.23;3.83;;;27.30;99.90;;;;;;5015467;28;20448;-61
2021/07/26 09:27:08;;;;;;;7.13;4.80;;;28.40;99.90;;;;;;5014778;28;20426;-61
2021/07/26 09:29:34;;;;;;;4.10;3.90;;;29.40;99.90;;;;;;5015142;28;20424;-61
2021/07/26 09:32:02;;;;;;;3.90;3.60;;;29.00;99.30;;;;;;5015236;28;20461;-61
2021/07/26 09:34:29;;;;;;;4.13;3.80;;;29.10;98.80;;;;;;5015049;28;20178;-61
2021/07/26 09:36:55;;;;;;;5.13;4.20;;;28.60;98.50;;;;;;5015184;28;20459;-61
2021/07/26 09:39:30;;;;;;;4.17;3.77;;;29.10;98.40;;;;;;4985563;28;20430;-60
2021/07/26 09:41:59;;;;;;;3.93;3.63;;;29.90;98.00;;;;;;5009405;28;20441;-61
2021/07/26 09:44:26;;;;;;;4.40;4.00;;;30.50;97.80;;;;;;5015538;28;20418;-61
2021/07/26 09:46:53;;;;;;;3.50;3.30;;;31.10;95.70;;;;;;5014857;28;20478;-61
2021/07/26 09:49:21;;;;;;;4.10;3.70;;;31.20;94.30;;;;;;5014634;28;20444;-60
2021/07/26 09:52:03;;;;;;;4.30;4.00;;;30.80;94.00;;;;;;5014851;28;20426;-60
2021/07/26 09:54:49;;;;;;;3.90;3.70;;;31.00;93.50;;;;;;4996390;28;20976;-60
2021/07/26 09:57:24;;;;;;;3.73;3.43;;;30.30;94.40;;;;;;5014667;28;20516;-60
2021/07/26 09:59:51;;;;;;;3.47;3.17;;;30.10;93.40;;;;;;5014097;28;20460;-61
2021/07/26 10:02:19;;;;;;;4.07;3.77;;;30.90;92.00;;;;;;5014748;28;20425;-61
2021/07/26 10:04:46;;;;;;;4.15;3.58;;;32.00;90.80;;;;;;5001728;28;20925;-61
2021/07/26 10:07:13;;;;;;;4.03;3.73;;;32.10;90.90;;;;;;5012960;28;20718;-60
2021/07/26 10:09:44;;;;;;;3.77;3.50;;;32.50;89.40;;;;;;5012216;28;20437;-62
2021/07/26 10:12:11;;;;;;;3.50;3.30;;;32.50;90.30;;;;;;5014249;28;20994;-61
2021/07/26 10:14:41;;;;;;;4.63;3.03;;;32.50;84.20;;;;;;5014437;28;20426;-61
2021/07/26 10:17:07;;;;;;;3.53;3.33;;;32.80;83.80;;;;;;5002011;28;20426;-61
2021/07/26 10:19:33;;;;;;;3.50;3.30;;;32.30;80.40;;;;;;5011806;28;20841;-61
2021/07/26 10:22:00;;;;;;;4.17;3.33;;;32.60;80.80;;;;;;5001871;28;20446;-62
2021/07/26 10:24:39;;;;;;;4.10;3.70;;;34.30;78.10;;;;;;5005296;28;20549;-62
2021/07/26 10:27:13;;;;;;;4.20;3.90;;;34.70;73.00;;;;;;5014336;28;20409;-60
2021/07/26 10:29:52;;;;;;;3.50;3.20;;;31.60;78.70;;;;;;5013939;28;20491;-62
2021/07/26 10:32:29;;;;;;;4.17;3.87;;;32.20;81.00;;;;;;5014126;28;20487;-61
2021/07/26 10:35:00;;;;;;;3.60;3.30;;;31.90;79.10;;;;;;4998166;28;20461;-60
2021/07/26 10:37:41;;;;;;;3.70;3.40;;;31.80;77.90;;;;;;4994559;28;20461;-60
2021/07/26 10:40:28;;;;;;;3.27;3.07;;;33.00;75.90;;;;;;4976795;28;20423;-58
2021/07/26 10:42:58;;;;;;;4.20;3.83;;;31.40;77.30;;;;;;4994306;28;20820;-60
2021/07/26 10:45:35;;;;;;;3.87;3.57;;;32.20;76.60;;;;;;4994565;28;20439;-58
2021/07/26 10:48:19;;;;;;;3.60;3.40;;;31.60;77.40;;;;;;4976962;28;20768;-60
2021/07/26 10:50:45;;;;;;;3.83;3.43;;;32.80;77.80;;;;;;5005673;28;20422;-59
2021/07/26 10:53:11;;;;;;;3.87;3.57;;;34.50;74.00;;;;;;5013686;28;20537;-60
2021/07/26 10:56:13;;;;;;;4.50;4.20;;;33.60;72.40;;;;;;5013416;28;20568;-60
2021/07/26 10:58:38;;;;;;;3.67;3.37;;;33.80;70.80;;;;;;5002726;28;20167;-60
2021/07/26 11:01:22;;;;;;;4.93;4.53;;;34.10;69.20;;;;;;5008781;28;20433;-61
2021/07/26 11:03:49;;;;;;;4.00;3.70;;;35.30;68.90;;;;;;5013614;28;20711;-61
2021/07/26 11:06:36;;;;;;;4.90;4.23;;;37.20;65.40;;;;;;5013433;28;20461;-59
2021/07/26 11:09:33;;;;;;;3.47;3.17;;;32.50;66.40;;;;;;5013310;28;20782;-60
2021/07/26 11:11:59;;;;;;;3.97;3.67;;;30.10;73.40;;;;;;5013385;28;20784;-60
2021/07/26 11:14:25;;;;;;;3.80;3.60;;;29.80;76.60;;;;;;5013300;28;20937;-60
2021/07/26 11:16:55;;;;;;;3.80;3.50;;;29.20;77.30;;;;;;5013413;28;20414;-61
2021/07/26 11:19:39;;;;;;;4.43;4.13;;;31.80;75.30;;;;;;5013069;28;20217;-61
2021/07/26 11:22:19;;;;;;;4.13;3.87;;;35.00;67.80;;;;;;4995778;28;20417;-60
2021/07/26 11:24:49;;;;;;;3.77;3.30;;;35.10;67.10;;;;;;5013010;28;20409;-60
2021/07/26 11:27:16;;;;;;;4.23;3.83;;;35.80;66.10;;;;;;5013156;28;20424;-60
2021/07/26 11:29:48;;;;;;;4.00;3.30;;;34.80;65.30;;;;;;5012837;28;20493;-61
2021/07/26 11:32:20;;;;;;;3.77;3.47;;;34.50;66.40;;;;;;5012566;28;20475;-60
2021/07/26 11:34:46;;;;;;;3.70;3.50;;;35.10;62.40;;;;;;5013038;28;20933;-60
2021/07/26 11:37:14;;;;;;;4.13;3.67;;;33.60;65.50;;;;;;5012851;28;20544;-60
2021/07/26 11:39:51;;;;;;;4.60;3.80;;;31.30;67.30;;;;;;5012704;28;20414;-58
2021/07/26 11:42:21;;;;;;;3.60;3.30;;;30.90;70.10;;;;;;5012894;28;20414;-61
2021/07/26 11:44:49;;;;;;;3.90;3.60;;;30.50;73.70;;;;;;5012969;28;20440;-60
2021/07/26 11:47:16;;;;;;;3.90;3.50;;;30.50;73.50;;;;;;5012871;28;20925;-60
2021/07/26 11:49:48;;;;;;;3.93;3.63;;;29.40;74.20;;;;;;5004728;28;20908;-59
2021/07/26 11:52:14;;;;;;;4.13;3.83;;;28.70;77.30;;;;;;5001033;28;20512;-60
2021/07/26 11:54:40;;;;;;;4.13;3.83;;;28.40;78.70;;;;;;5012666;28;20446;-60
2021/07/26 11:57:07;;;;;;;3.93;3.67;;;27.60;82.80;;;;;;5012670;28;20457;-60
2021/07/26 11:59:34;;;;;;;4.80;4.10;;;27.20;83.20;;;;;;5012379;28;20170;-61
2021/07/26 12:02:34;;;;;;;5.17;4.20;;;27.30;89.00;;;;;;5012415;28;20413;-60
2021/07/26 12:05:07;;;;;;;4.20;3.60;;;27.10;87.90;;;;;;4999187;28;20465;-60
2021/07/26 12:07:44;;;;;;;4.70;4.27;;;27.00;90.70;;;;;;5010657;28;20781;-58
2021/07/26 12:10:11;;;;;;;7.53;4.80;;;27.20;94.90;;;;;;4994541;28;20417;-61
2021/07/26 12:12:38;;;;;;;5.80;5.30;;;27.00;97.60;;;;;;5012121;28;20484;-60
2021/07/26 12:15:33;;;;;;;6.77;4.97;;;26.40;99.70;;;;;;5012387;28;20492;-60
2021/07/26 12:18:10;;;;;;;5.37;4.93;;;26.30;99.90;;;;;;4999181;28;20517;-60
2021/07/26 12:20:37;;;;;;;5.07;4.57;;;26.20;99.90;;;;;;5011461;28;20915;-60
2021/07/26 12:23:14;;;;;;;5.77;5.10;;;26.00;99.90;;;;;;5012202;28;20907;-60
2021/07/26 12:25:47;;;;;;;6.33;5.43;;;26.10;99.90;;;;;;5012183;28;20445;-60
2021/07/26 12:28:15;;;;;;;6.07;5.17;;;26.10;99.90;;;;;;5012028;28;20425;-60
2021/07/26 12:30:43;;;;;;;4.67;4.20;;;25.90;99.90;;;;;;5012082;28;20414;-60
2021/07/26 12:33:09;;;;;;;5.53;5.20;;;25.80;99.90;;;;;;5012013;28;20970;-58
2021/07/26 12:35:36;;;;;;;5.10;4.60;;;25.70;99.90;;;;;;5011569;28;20808;-60
2021/07/26 12:38:17;;;;;;;5.23;4.73;;;25.70;99.90;;;;;;5012139;28;20422;-59
2021/07/26 12:40:46;;;;;;;5.80;5.30;;;25.70;99.90;;;;;;5011937;28;20418;-60
2021/07/26 12:43:19;;;;;;;5.17;4.77;;;25.70;99.90;;;;;;5012137;28;20413;-60
2021/07/26 12:45:58;;;;;;;5.40;4.53;;;25.50;99.90;;;;;;5016176;28;20506;-60
2021/07/26 12:48:26;;;;;;;6.60;4.43;;;25.50;99.90;;;;;;4998164;28;20456;-60
2021/07/26 12:50:53;;;;;;;5.40;5.00;;;25.50;99.90;;;;;;4998623;28;20422;-60
2021/07/26 12:53:19;;;;;;;6.03;5.10;;;25.50;99.90;;;;;;4978841;28;20504;-59